sensor_id;sensor_type;location;lat;lon;timestamp;temperature;humidity
23713;DHT22;12035;49.978;8.298;2024-02-23T00:01:28;11.60;74.90
23713;DHT22;12035;49.978;8.298;2024-02-23T00:06:25;11.60;74.40
23713;DHT22;12035;49.978;8.298;2024-02-23T00:11:23;11.50;73.90
23713;DHT22;12035;49.978;8.298;2024-02-23T00:16:20;11.50;73.70
23713;DHT22;12035;49.978;8.298;2024-02-23T00:21:18;11.40;73.40
23713;DHT22;12035;49.978;8.298;2024-02-23T00:26:15;11.30;72.60
23713;DHT22;12035;49.978;8.298;2024-02-23T00:31:12;11.30;72.90
23713;DHT22;12035;49.978;8.298;2024-02-23T00:36:09;11.20;73.40
23713;DHT22;12035;49.978;8.298;2024-02-23T00:41:08;11.20;73.00
23713;DHT22;12035;49.978;8.298;2024-02-23T00:46:05;11.10;72.80
23713;DHT22;12035;49.978;8.298;2024-02-23T00:51:02;11.10;73.10
23713;DHT22;12035;49.978;8.298;2024-02-23T00:56:00;11.00;73.10
23713;DHT22;12035;49.978;8.298;2024-02-23T01:00:59;10.90;73.60
23713;DHT22;12035;49.978;8.298;2024-02-23T01:05:56;10.90;74.00
23713;DHT22;12035;49.978;8.298;2024-02-23T01:10:53;10.90;72.70
23713;DHT22;12035;49.978;8.298;2024-02-23T01:15:50;10.80;72.90
23713;DHT22;12035;49.978;8.298;2024-02-23T01:20:50;10.80;72.80
23713;DHT22;12035;49.978;8.298;2024-02-23T01:25:47;10.80;72.60
23713;DHT22;12035;49.978;8.298;2024-02-23T01:30:44;10.70;72.30
23713;DHT22;12035;49.978;8.298;2024-02-23T01:35:41;10.70;72.60
23713;DHT22;12035;49.978;8.298;2024-02-23T01:40:40;10.70;72.90
23713;DHT22;12035;49.978;8.298;2024-02-23T01:45:37;10.70;73.10
23713;DHT22;12035;49.978;8.298;2024-02-23T01:50:34;10.60;73.90
23713;DHT22;12035;49.978;8.298;2024-02-23T01:55:32;10.60;74.70
23713;DHT22;12035;49.978;8.298;2024-02-23T02:00:30;10.60;75.00
23713;DHT22;12035;49.978;8.298;2024-02-23T02:05:28;10.60;75.30
23713;DHT22;12035;49.978;8.298;2024-02-23T02:10:25;10.60;75.40
23713;DHT22;12035;49.978;8.298;2024-02-23T02:15:22;10.60;75.10
23713;DHT22;12035;49.978;8.298;2024-02-23T02:20:24;10.50;74.80
23713;DHT22;12035;49.978;8.298;2024-02-23T02:25:21;10.40;74.20
23713;DHT22;12035;49.978;8.298;2024-02-23T02:30:18;10.40;75.20
23713;DHT22;12035;49.978;8.298;2024-02-23T02:35:15;10.30;74.20
23713;DHT22;12035;49.978;8.298;2024-02-23T02:40:14;10.20;73.90
23713;DHT22;12035;49.978;8.298;2024-02-23T02:45:11;10.10;73.40
23713;DHT22;12035;49.978;8.298;2024-02-23T02:50:09;10.00;73.00
23713;DHT22;12035;49.978;8.298;2024-02-23T02:55:07;9.90;73.10
23713;DHT22;12035;49.978;8.298;2024-02-23T03:00:10;9.80;72.80
23713;DHT22;12035;49.978;8.298;2024-02-23T03:05:08;9.70;72.80
23713;DHT22;12035;49.978;8.298;2024-02-23T03:10:06;9.60;73.10
23713;DHT22;12035;49.978;8.298;2024-02-23T03:15:05;9.60;73.40
23713;DHT22;12035;49.978;8.298;2024-02-23T03:20:03;9.50;73.90
23713;DHT22;12035;49.978;8.298;2024-02-23T03:25:04;9.40;74.40
23713;DHT22;12035;49.978;8.298;2024-02-23T03:30:06;9.30;74.70
23713;DHT22;12035;49.978;8.298;2024-02-23T03:35:06;9.20;75.10
23713;DHT22;12035;49.978;8.298;2024-02-23T03:40:04;9.10;75.30
23713;DHT22;12035;49.978;8.298;2024-02-23T03:45:03;9.10;75.50
23713;DHT22;12035;49.978;8.298;2024-02-23T03:50:02;9.00;75.60
23713;DHT22;12035;49.978;8.298;2024-02-23T03:55:00;8.90;75.50
23713;DHT22;12035;49.978;8.298;2024-02-23T03:59:59;8.90;75.50
23713;DHT22;12035;49.978;8.298;2024-02-23T04:04:57;8.80;75.50
23713;DHT22;12035;49.978;8.298;2024-02-23T04:09:54;8.80;75.70
23713;DHT22;12035;49.978;8.298;2024-02-23T04:14:51;8.70;75.80
23713;DHT22;12035;49.978;8.298;2024-02-23T04:19:48;8.70;75.80
23713;DHT22;12035;49.978;8.298;2024-02-23T04:24:46;8.70;76.00
23713;DHT22;12035;49.978;8.298;2024-02-23T04:29:43;8.70;76.10
23713;DHT22;12035;49.978;8.298;2024-02-23T04:34:40;8.70;76.10
23713;DHT22;12035;49.978;8.298;2024-02-23T04:39:37;8.70;76.00
23713;DHT22;12035;49.978;8.298;2024-02-23T04:44:38;8.70;76.10
23713;DHT22;12035;49.978;8.298;2024-02-23T04:49:37;8.80;76.30
23713;DHT22;12035;49.978;8.298;2024-02-23T04:54:34;8.80;76.10
23713;DHT22;12035;49.978;8.298;2024-02-23T04:59:31;8.80;76.10
23713;DHT22;12035;49.978;8.298;2024-02-23T05:04:29;8.80;76.10
23713;DHT22;12035;49.978;8.298;2024-02-23T05:09:26;8.80;75.90
23713;DHT22;12035;49.978;8.298;2024-02-23T05:14:24;8.80;75.90
23713;DHT22;12035;49.978;8.298;2024-02-23T05:19:21;8.70;75.90
23713;DHT22;12035;49.978;8.298;2024-02-23T05:24:20;8.70;76.00
23713;DHT22;12035;49.978;8.298;2024-02-23T05:29:17;8.70;75.90
23713;DHT22;12035;49.978;8.298;2024-02-23T05:34:15;8.60;75.90
23713;DHT22;12035;49.978;8.298;2024-02-23T05:39:12;8.60;76.00
23713;DHT22;12035;49.978;8.298;2024-02-23T05:44:12;8.50;75.90
23713;DHT22;12035;49.978;8.298;2024-02-23T05:49:09;8.50;76.10
23713;DHT22;12035;49.978;8.298;2024-02-23T05:54:06;8.50;76.20
23713;DHT22;12035;49.978;8.298;2024-02-23T05:59:06;8.40;76.40
23713;DHT22;12035;49.978;8.298;2024-02-23T06:04:04;8.40;76.50
23713;DHT22;12035;49.978;8.298;2024-02-23T06:09:01;8.40;76.60
23713;DHT22;12035;49.978;8.298;2024-02-23T06:13:59;8.30;76.50
23713;DHT22;12035;49.978;8.298;2024-02-23T06:18:56;8.30;76.50
23713;DHT22;12035;49.978;8.298;2024-02-23T06:23:55;8.30;76.50
23713;DHT22;12035;49.978;8.298;2024-02-23T06:28:52;8.30;76.40
23713;DHT22;12035;49.978;8.298;2024-02-23T06:33:50;8.30;76.50
23713;DHT22;12035;49.978;8.298;2024-02-23T06:38:47;8.30;76.20
23713;DHT22;12035;49.978;8.298;2024-02-23T06:43:45;8.30;76.20
23713;DHT22;12035;49.978;8.298;2024-02-23T06:48:45;8.40;76.40
23713;DHT22;12035;49.978;8.298;2024-02-23T06:53:42;8.40;76.30
23713;DHT22;12035;49.978;8.298;2024-02-23T06:58:40;8.40;76.20
23713;DHT22;12035;49.978;8.298;2024-02-23T07:03:38;8.50;76.20
23713;DHT22;12035;49.978;8.298;2024-02-23T07:08:35;8.50;76.30
23713;DHT22;12035;49.978;8.298;2024-02-23T07:13:33;8.50;76.50
23713;DHT22;12035;49.978;8.298;2024-02-23T07:18:30;8.50;76.60
23713;DHT22;12035;49.978;8.298;2024-02-23T07:23:29;8.50;76.80
23713;DHT22;12035;49.978;8.298;2024-02-23T07:28:26;8.60;77.20
23713;DHT22;12035;49.978;8.298;2024-02-23T07:33:23;8.60;77.00
23713;DHT22;12035;49.978;8.298;2024-02-23T07:38:20;8.70;76.90
23713;DHT22;12035;49.978;8.298;2024-02-23T07:43:18;8.70;76.90
23713;DHT22;12035;49.978;8.298;2024-02-23T07:48:15;8.70;76.90
23713;DHT22;12035;49.978;8.298;2024-02-23T07:53:12;8.80;76.90
23713;DHT22;12035;49.978;8.298;2024-02-23T07:58:09;8.80;76.80
23713;DHT22;12035;49.978;8.298;2024-02-23T08:03:08;8.80;76.60
23713;DHT22;12035;49.978;8.298;2024-02-23T08:08:09;8.90;76.40
23713;DHT22;12035;49.978;8.298;2024-02-23T08:13:06;8.80;76.50
23713;DHT22;12035;49.978;8.298;2024-02-23T08:18:04;8.90;76.60
23713;DHT22;12035;49.978;8.298;2024-02-23T08:23:02;8.90;76.70
23713;DHT22;12035;49.978;8.298;2024-02-23T08:27:59;8.90;76.80
23713;DHT22;12035;49.978;8.298;2024-02-23T08:32:56;8.90;76.40
23713;DHT22;12035;49.978;8.298;2024-02-23T08:37:55;8.90;76.70
23713;DHT22;12035;49.978;8.298;2024-02-23T08:42:53;9.00;76.80
23713;DHT22;12035;49.978;8.298;2024-02-23T08:47:50;9.00;76.70
23713;DHT22;12035;49.978;8.298;2024-02-23T08:52:47;9.10;76.70
23713;DHT22;12035;49.978;8.298;2024-02-23T08:57:45;9.10;76.40
23713;DHT22;12035;49.978;8.298;2024-02-23T09:02:43;9.10;76.40
23713;DHT22;12035;49.978;8.298;2024-02-23T09:07:40;9.20;76.30
23713;DHT22;12035;49.978;8.298;2024-02-23T09:12:37;9.20;76.40
23713;DHT22;12035;49.978;8.298;2024-02-23T09:17:34;9.30;76.50
23713;DHT22;12035;49.978;8.298;2024-02-23T09:22:33;9.30;76.10
23713;DHT22;12035;49.978;8.298;2024-02-23T09:27:31;9.30;76.40
23713;DHT22;12035;49.978;8.298;2024-02-23T09:32:28;9.40;76.80
23713;DHT22;12035;49.978;8.298;2024-02-23T09:37:25;9.70;76.50
23713;DHT22;12035;49.978;8.298;2024-02-23T09:42:24;9.80;76.20
23713;DHT22;12035;49.978;8.298;2024-02-23T09:47:21;9.90;75.70
23713;DHT22;12035;49.978;8.298;2024-02-23T09:52:19;9.90;75.30
23713;DHT22;12035;49.978;8.298;2024-02-23T09:57:17;10.00;75.10
23713;DHT22;12035;49.978;8.298;2024-02-23T10:02:16;10.10;75.00
23713;DHT22;12035;49.978;8.298;2024-02-23T10:07:15;10.20;74.10
23713;DHT22;12035;49.978;8.298;2024-02-23T10:12:13;10.40;73.00
23713;DHT22;12035;49.978;8.298;2024-02-23T10:17:10;10.40;72.60
23713;DHT22;12035;49.978;8.298;2024-02-23T10:22:08;10.50;72.50
23713;DHT22;12035;49.978;8.298;2024-02-23T10:27:05;10.50;72.20
23713;DHT22;12035;49.978;8.298;2024-02-23T10:32:03;10.50;72.20
23713;DHT22;12035;49.978;8.298;2024-02-23T10:37:03;10.50;72.70
23713;DHT22;12035;49.978;8.298;2024-02-23T10:42:04;10.50;72.10
23713;DHT22;12035;49.978;8.298;2024-02-23T10:47:01;10.50;72.00
23713;DHT22;12035;49.978;8.298;2024-02-23T10:51:59;10.60;72.40
23713;DHT22;12035;49.978;8.298;2024-02-23T10:56:57;10.60;72.50
23713;DHT22;12035;49.978;8.298;2024-02-23T11:01:57;10.70;72.30
23713;DHT22;12035;49.978;8.298;2024-02-23T11:06:55;10.80;72.90
23713;DHT22;12035;49.978;8.298;2024-02-23T11:11:54;11.00;72.70
23713;DHT22;12035;49.978;8.298;2024-02-23T11:16:51;11.20;73.00
23713;DHT22;12035;49.978;8.298;2024-02-23T11:21:53;11.50;74.00
23713;DHT22;12035;49.978;8.298;2024-02-23T11:26:56;11.90;72.80
23713;DHT22;12035;49.978;8.298;2024-02-23T11:31:55;12.30;70.10
23713;DHT22;12035;49.978;8.298;2024-02-23T11:36:58;12.60;69.50
23713;DHT22;12035;49.978;8.298;2024-02-23T11:42:04;12.80;68.90
23713;DHT22;12035;49.978;8.298;2024-02-23T11:47:02;13.00;67.30
23713;DHT22;12035;49.978;8.298;2024-02-23T11:52:01;13.20;66.00
23713;DHT22;12035;49.978;8.298;2024-02-23T11:56:58;13.20;64.50
23713;DHT22;12035;49.978;8.298;2024-02-23T12:01:55;13.20;63.10
23713;DHT22;12035;49.978;8.298;2024-02-23T12:06:53;13.20;63.50
23713;DHT22;12035;49.978;8.298;2024-02-23T12:11:52;13.30;62.60
23713;DHT22;12035;49.978;8.298;2024-02-23T12:16:49;13.20;62.90
23713;DHT22;12035;49.978;8.298;2024-02-23T12:21:48;13.20;62.00
23713;DHT22;12035;49.978;8.298;2024-02-23T12:26:45;13.10;61.60
23713;DHT22;12035;49.978;8.298;2024-02-23T12:31:43;13.00;60.60
23713;DHT22;12035;49.978;8.298;2024-02-23T12:36:40;13.00;60.80
23713;DHT22;12035;49.978;8.298;2024-02-23T12:41:37;13.00;59.90
23713;DHT22;12035;49.978;8.298;2024-02-23T12:46:34;13.10;59.80
23713;DHT22;12035;49.978;8.298;2024-02-23T12:51:33;13.00;59.40
23713;DHT22;12035;49.978;8.298;2024-02-23T12:56:31;13.00;59.60
23713;DHT22;12035;49.978;8.298;2024-02-23T13:01:28;13.00;59.60
23713;DHT22;12035;49.978;8.298;2024-02-23T13:06:27;13.00;60.00
23713;DHT22;12035;49.978;8.298;2024-02-23T13:11:26;13.10;59.80
23713;DHT22;12035;49.978;8.298;2024-02-23T13:16:23;13.10;59.80
23713;DHT22;12035;49.978;8.298;2024-02-23T13:21:20;13.20;60.70
23713;DHT22;12035;49.978;8.298;2024-02-23T13:26:17;13.20;59.50
23713;DHT22;12035;49.978;8.298;2024-02-23T13:31:15;13.30;59.60
23713;DHT22;12035;49.978;8.298;2024-02-23T13:36:13;13.30;59.30
23713;DHT22;12035;49.978;8.298;2024-02-23T13:41:10;13.30;59.00
23713;DHT22;12035;49.978;8.298;2024-02-23T13:46:07;13.40;59.00
23713;DHT22;12035;49.978;8.298;2024-02-23T13:51:05;13.30;58.90
23713;DHT22;12035;49.978;8.298;2024-02-23T13:56:03;13.30;58.30
23713;DHT22;12035;49.978;8.298;2024-02-23T14:01:00;13.20;58.30
23713;DHT22;12035;49.978;8.298;2024-02-23T14:05:57;13.20;58.20
23713;DHT22;12035;49.978;8.298;2024-02-23T14:10:55;13.30;57.60
23713;DHT22;12035;49.978;8.298;2024-02-23T14:15:52;13.30;57.80
23713;DHT22;12035;49.978;8.298;2024-02-23T14:20:49;13.30;58.20
23713;DHT22;12035;49.978;8.298;2024-02-23T14:25:47;13.30;58.80
23713;DHT22;12035;49.978;8.298;2024-02-23T14:30:46;13.40;57.40
23713;DHT22;12035;49.978;8.298;2024-02-23T14:35:43;13.50;57.50
23713;DHT22;12035;49.978;8.298;2024-02-23T14:40:40;13.50;58.10
23713;DHT22;12035;49.978;8.298;2024-02-23T14:45:37;13.60;57.70
23713;DHT22;12035;49.978;8.298;2024-02-23T14:50:35;13.60;57.30
23713;DHT22;12035;49.978;8.298;2024-02-23T14:55:32;13.50;57.40
23713;DHT22;12035;49.978;8.298;2024-02-23T15:00:30;13.50;57.40
23713;DHT22;12035;49.978;8.298;2024-02-23T15:05:28;13.40;57.10
23713;DHT22;12035;49.978;8.298;2024-02-23T15:10:27;13.40;57.20
23713;DHT22;12035;49.978;8.298;2024-02-23T15:15:24;13.30;57.00
23713;DHT22;12035;49.978;8.298;2024-02-23T15:20:22;13.30;56.40
23713;DHT22;12035;49.978;8.298;2024-02-23T15:25:19;13.20;56.30
23713;DHT22;12035;49.978;8.298;2024-02-23T15:30:17;13.20;56.10
23713;DHT22;12035;49.978;8.298;2024-02-23T15:35:15;13.10;56.10
23713;DHT22;12035;49.978;8.298;2024-02-23T15:40:12;13.00;56.60
23713;DHT22;12035;49.978;8.298;2024-02-23T15:45:10;12.90;57.30
23713;DHT22;12035;49.978;8.298;2024-02-23T15:50:09;12.80;58.50
23713;DHT22;12035;49.978;8.298;2024-02-23T15:55:07;12.80;60.40
23713;DHT22;12035;49.978;8.298;2024-02-23T16:00:07;12.70;61.40
23713;DHT22;12035;49.978;8.298;2024-02-23T16:05:06;12.60;62.10
23713;DHT22;12035;49.978;8.298;2024-02-23T16:10:05;12.50;62.60
23713;DHT22;12035;49.978;8.298;2024-02-23T16:15:05;12.50;63.10
23713;DHT22;12035;49.978;8.298;2024-02-23T16:20:04;12.40;63.40
23713;DHT22;12035;49.978;8.298;2024-02-23T16:25:02;12.30;63.80
23713;DHT22;12035;49.978;8.298;2024-02-23T16:30:02;12.30;63.90
23713;DHT22;12035;49.978;8.298;2024-02-23T16:34:59;12.30;63.90
23713;DHT22;12035;49.978;8.298;2024-02-23T16:39:56;12.30;63.80
23713;DHT22;12035;49.978;8.298;2024-02-23T16:44:55;12.20;63.80
23713;DHT22;12035;49.978;8.298;2024-02-23T16:49:52;12.20;63.90
23713;DHT22;12035;49.978;8.298;2024-02-23T16:54:49;12.20;63.90
23713;DHT22;12035;49.978;8.298;2024-02-23T16:59:46;12.20;64.10
23713;DHT22;12035;49.978;8.298;2024-02-23T17:04:44;12.20;64.90
23713;DHT22;12035;49.978;8.298;2024-02-23T17:09:42;12.10;64.10
23713;DHT22;12035;49.978;8.298;2024-02-23T17:14:41;12.10;63.90
23713;DHT22;12035;49.978;8.298;2024-02-23T17:19:39;12.10;63.90
23713;DHT22;12035;49.978;8.298;2024-02-23T17:24:38;12.00;63.80
23713;DHT22;12035;49.978;8.298;2024-02-23T17:29:35;12.10;64.40
23713;DHT22;12035;49.978;8.298;2024-02-23T17:34:32;12.00;66.20
23713;DHT22;12035;49.978;8.298;2024-02-23T17:39:29;11.80;66.90
23713;DHT22;12035;49.978;8.298;2024-02-23T17:44:27;11.70;67.30
23713;DHT22;12035;49.978;8.298;2024-02-23T17:49:24;11.60;67.80
23713;DHT22;12035;49.978;8.298;2024-02-23T17:54:21;11.50;68.10
23713;DHT22;12035;49.978;8.298;2024-02-23T17:59:18;11.50;68.40
23713;DHT22;12035;49.978;8.298;2024-02-23T18:04:17;11.40;68.60
23713;DHT22;12035;49.978;8.298;2024-02-23T18:09:17;11.40;69.10
23713;DHT22;12035;49.978;8.298;2024-02-23T18:14:14;11.30;69.20
23713;DHT22;12035;49.978;8.298;2024-02-23T18:19:13;11.30;69.50
23713;DHT22;12035;49.978;8.298;2024-02-23T18:24:11;11.20;69.20
23713;DHT22;12035;49.978;8.298;2024-02-23T18:29:08;11.20;69.40
23713;DHT22;12035;49.978;8.298;2024-02-23T18:34:05;11.20;69.60
23713;DHT22;12035;49.978;8.298;2024-02-23T18:39:02;11.20;69.80
23713;DHT22;12035;49.978;8.298;2024-02-23T18:44:02;11.20;69.70
23713;DHT22;12035;49.978;8.298;2024-02-23T18:49:00;11.20;69.80
23713;DHT22;12035;49.978;8.298;2024-02-23T18:53:57;11.30;70.20
23713;DHT22;12035;49.978;8.298;2024-02-23T18:58:55;11.20;70.20
23713;DHT22;12035;49.978;8.298;2024-02-23T19:03:53;11.30;70.50
23713;DHT22;12035;49.978;8.298;2024-02-23T19:08:50;11.30;70.40
23713;DHT22;12035;49.978;8.298;2024-02-23T19:13:48;11.30;70.20
23713;DHT22;12035;49.978;8.298;2024-02-23T19:18:45;11.20;70.40
23713;DHT22;12035;49.978;8.298;2024-02-23T19:23:43;11.10;70.50
23713;DHT22;12035;49.978;8.298;2024-02-23T19:28:42;11.10;70.70
23713;DHT22;12035;49.978;8.298;2024-02-23T19:33:39;11.10;70.80
23713;DHT22;12035;49.978;8.298;2024-02-23T19:38:36;11.10;71.00
23713;DHT22;12035;49.978;8.298;2024-02-23T19:43:34;11.10;71.00
23713;DHT22;12035;49.978;8.298;2024-02-23T19:48:31;11.00;71.00
23713;DHT22;12035;49.978;8.298;2024-02-23T19:53:28;11.10;71.10
23713;DHT22;12035;49.978;8.298;2024-02-23T19:58:25;11.10;71.20
23713;DHT22;12035;49.978;8.298;2024-02-23T20:03:24;11.10;71.30
23713;DHT22;12035;49.978;8.298;2024-02-23T20:08:21;11.10;71.50
23713;DHT22;12035;49.978;8.298;2024-02-23T20:13:19;11.10;71.50
23713;DHT22;12035;49.978;8.298;2024-02-23T20:18:16;11.10;71.30
23713;DHT22;12035;49.978;8.298;2024-02-23T20:23:14;11.00;71.30
23713;DHT22;12035;49.978;8.298;2024-02-23T20:28:11;11.00;71.40
23713;DHT22;12035;49.978;8.298;2024-02-23T20:33:08;11.00;71.50
23713;DHT22;12035;49.978;8.298;2024-02-23T20:38:05;11.10;71.50
23713;DHT22;12035;49.978;8.298;2024-02-23T20:43:06;11.10;71.30
23713;DHT22;12035;49.978;8.298;2024-02-23T20:48:04;11.10;71.30
23713;DHT22;12035;49.978;8.298;2024-02-23T20:53:02;11.10;71.10
23713;DHT22;12035;49.978;8.298;2024-02-23T20:57:59;11.00;71.10
23713;DHT22;12035;49.978;8.298;2024-02-23T21:02:57;11.00;71.20
23713;DHT22;12035;49.978;8.298;2024-02-23T21:07:54;11.00;71.10
23713;DHT22;12035;49.978;8.298;2024-02-23T21:12:51;11.00;70.90
23713;DHT22;12035;49.978;8.298;2024-02-23T21:17:48;11.00;70.90
23713;DHT22;12035;49.978;8.298;2024-02-23T21:22:47;11.00;71.00
23713;DHT22;12035;49.978;8.298;2024-02-23T21:27:44;10.90;71.30
23713;DHT22;12035;49.978;8.298;2024-02-23T21:32:41;10.90;71.20
23713;DHT22;12035;49.978;8.298;2024-02-23T21:37:38;10.90;71.10
23713;DHT22;12035;49.978;8.298;2024-02-23T21:42:36;10.90;71.00
23713;DHT22;12035;49.978;8.298;2024-02-23T21:47:33;10.80;70.80
23713;DHT22;12035;49.978;8.298;2024-02-23T21:52:31;10.70;71.40
23713;DHT22;12035;49.978;8.298;2024-02-23T21:57:32;10.60;70.60
23713;DHT22;12035;49.978;8.298;2024-02-23T22:02:31;10.60;70.80
23713;DHT22;12035;49.978;8.298;2024-02-23T22:07:28;10.50;70.90
23713;DHT22;12035;49.978;8.298;2024-02-23T22:12:26;10.40;71.10
23713;DHT22;12035;49.978;8.298;2024-02-23T22:17:23;10.40;71.30
23713;DHT22;12035;49.978;8.298;2024-02-23T22:22:24;10.40;71.10
23713;DHT22;12035;49.978;8.298;2024-02-23T22:27:22;10.30;71.20
23713;DHT22;12035;49.978;8.298;2024-02-23T22:32:19;10.30;71.20
23713;DHT22;12035;49.978;8.298;2024-02-23T22:37:16;10.30;71.30
23713;DHT22;12035;49.978;8.298;2024-02-23T22:42:16;10.20;71.30
23713;DHT22;12035;49.978;8.298;2024-02-23T22:47:13;10.20;71.50
23713;DHT22;12035;49.978;8.298;2024-02-23T22:52:10;10.10;71.70
23713;DHT22;12035;49.978;8.298;2024-02-23T22:57:07;10.00;71.80
23713;DHT22;12035;49.978;8.298;2024-02-23T23:02:06;10.00;72.00
23713;DHT22;12035;49.978;8.298;2024-02-23T23:07:03;9.90;72.10
23713;DHT22;12035;49.978;8.298;2024-02-23T23:12:00;9.80;72.40
23713;DHT22;12035;49.978;8.298;2024-02-23T23:16:57;9.80;72.60
23713;DHT22;12035;49.978;8.298;2024-02-23T23:21:56;9.80;72.60
23713;DHT22;12035;49.978;8.298;2024-02-23T23:26:53;9.90;72.90
23713;DHT22;12035;49.978;8.298;2024-02-23T23:31:50;9.80;72.90
23713;DHT22;12035;49.978;8.298;2024-02-23T23:36:47;9.80;73.00
23713;DHT22;12035;49.978;8.298;2024-02-23T23:41:46;9.80;73.10
23713;DHT22;12035;49.978;8.298;2024-02-23T23:46:44;9.90;73.30
23713;DHT22;12035;49.978;8.298;2024-02-23T23:51:41;9.80;73.20
23713;DHT22;12035;49.978;8.298;2024-02-23T23:56:38;9.80;73.30
